Time;durP1;ratioP1;P1;durP2;ratioP2;P2;SDS_P1;SDS_P2;PMS_P1;PMS_P2;Temp;Humidity;BMP_temperature;BMP_pressure;BME280_temperature;BME280_humidity;BME280_pressure;Samples;Min_cycle;Max_cycle;Signal;HPM_P1;HPM_P2
2022/02/27 00:01:19;;;;;;;12.93;6.63;;;0.90;99.90;;;;;;4956740;28;20983;-86
2022/02/27 00:03:45;;;;;;;12.00;6.33;;;0.80;99.90;;;;;;4973851;28;20173;-85
2022/02/27 00:06:10;;;;;;;9.40;5.80;;;0.80;99.90;;;;;;4956264;28;20220;-86
2022/02/27 00:08:36;;;;;;;11.60;5.83;;;0.80;99.90;;;;;;4956676;28;20200;-86
2022/02/27 00:11:02;;;;;;;16.73;6.37;;;0.90;99.90;;;;;;4974008;28;20168;-85
2022/02/27 00:13:28;;;;;;;10.83;6.37;;;0.80;99.90;;;;;;4956772;28;20636;-89
2022/02/27 00:15:54;;;;;;;12.47;6.20;;;0.80;99.90;;;;;;4956648;28;20173;-85
2022/02/27 00:18:19;;;;;;;10.70;6.17;;;0.70;99.90;;;;;;4956819;28;20235;-84
2022/02/27 00:20:47;;;;;;;10.63;5.97;;;0.60;99.90;;;;;;4956509;28;20227;-84
2022/02/27 00:23:15;;;;;;;10.90;6.20;;;0.60;99.90;;;;;;4955965;28;20173;-84
2022/02/27 00:25:41;;;;;;;11.13;6.57;;;0.60;99.90;;;;;;4956456;28;20196;-88
2022/02/27 00:28:09;;;;;;;12.60;6.13;;;0.50;99.90;;;;;;4956038;28;20626;-84
2022/02/27 00:30:38;;;;;;;10.97;5.23;;;0.50;99.90;;;;;;4956200;28;20163;-84
2022/02/27 00:33:05;;;;;;;10.50;5.67;;;0.50;99.90;;;;;;4973676;28;20154;-84
2022/02/27 00:35:30;;;;;;;11.03;5.20;;;0.50;99.90;;;;;;4954171;28;20245;-84
2022/02/27 00:37:56;;;;;;;10.97;5.53;;;0.50;99.90;;;;;;4954066;29;20665;-87
2022/02/27 00:40:23;;;;;;;11.37;5.87;;;0.50;99.90;;;;;;4936873;29;20182;-86
2022/02/27 00:42:49;;;;;;;9.83;5.17;;;0.60;99.90;;;;;;4937075;29;20179;-84
2022/02/27 00:45:14;;;;;;;13.97;5.17;;;0.50;99.90;;;;;;4936644;29;20287;-88
2022/02/27 00:47:42;;;;;;;11.60;5.93;;;0.50;99.90;;;;;;4936404;29;20197;-84
2022/02/27 00:50:09;;;;;;;10.83;4.90;;;0.40;99.90;;;;;;4937920;29;20161;-87
2022/02/27 00:52:35;;;;;;;10.97;5.57;;;0.40;99.90;;;;;;4940489;29;20166;-85
2022/02/27 00:55:02;;;;;;;10.43;5.93;;;0.30;99.90;;;;;;4940629;29;20638;-86
2022/02/27 00:57:29;;;;;;;9.60;5.73;;;0.30;99.90;;;;;;4940225;29;20260;-88
2022/02/27 00:59:56;;;;;;;12.97;6.33;;;0.30;99.90;;;;;;4939993;29;20205;-86
2022/02/27 01:02:22;;;;;;;9.23;5.87;;;0.30;99.90;;;;;;4940332;29;20652;-85
2022/02/27 01:04:48;;;;;;;12.97;6.40;;;0.40;99.90;;;;;;4940047;29;20169;-87
2022/02/27 01:07:14;;;;;;;10.30;6.23;;;0.40;99.90;;;;;;4939977;29;20729;-86
2022/02/27 01:09:40;;;;;;;12.37;6.10;;;0.50;99.90;;;;;;4939989;29;20173;-85
2022/02/27 01:12:06;;;;;;;11.37;5.73;;;0.50;99.90;;;;;;4940069;29;20174;-83
2022/02/27 01:14:35;;;;;;;11.43;5.23;;;0.50;99.90;;;;;;4940176;29;20181;-84
2022/02/27 01:17:05;;;;;;;15.20;6.87;;;0.50;99.90;;;;;;4939642;29;20574;-86
2022/02/27 01:19:31;;;;;;;14.63;6.70;;;0.60;99.90;;;;;;4939740;29;20509;-85
2022/02/27 01:21:57;;;;;;;11.03;6.07;;;0.60;99.90;;;;;;4939467;29;20173;-85
2022/02/27 01:24:23;;;;;;;13.77;6.13;;;0.60;99.90;;;;;;4939562;29;20185;-84
2022/02/27 01:26:48;;;;;;;14.77;5.77;;;0.60;99.90;;;;;;4938933;29;20237;-85
2022/02/27 01:29:14;;;;;;;17.20;6.47;;;0.60;99.90;;;;;;4939680;29;20177;-87
2022/02/27 01:31:40;;;;;;;11.63;5.97;;;0.60;99.90;;;;;;4956930;29;20193;-85
2022/02/27 01:34:05;;;;;;;15.33;6.73;;;0.60;99.90;;;;;;4939397;29;20216;-85
2022/02/27 01:36:31;;;;;;;9.93;6.00;;;0.60;99.90;;;;;;4954221;28;20299;-86
2022/02/27 01:38:58;;;;;;;13.90;6.27;;;0.60;99.90;;;;;;4958396;28;20196;-85
2022/02/27 01:41:25;;;;;;;13.83;6.07;;;0.60;99.90;;;;;;4958650;28;20294;-85
2022/02/27 01:43:51;;;;;;;13.13;6.23;;;0.60;99.90;;;;;;4958556;28;20169;-85
2022/02/27 01:46:17;;;;;;;9.47;6.00;;;0.60;99.90;;;;;;4958388;28;20200;-85
2022/02/27 01:48:43;;;;;;;14.40;6.07;;;0.60;99.90;;;;;;4975588;28;20203;-84
2022/02/27 01:51:10;;;;;;;11.37;5.87;;;0.60;99.90;;;;;;4958438;28;20172;-84
2022/02/27 01:53:35;;;;;;;11.33;5.87;;;0.60;99.90;;;;;;4958369;28;20170;-86
2022/02/27 01:56:01;;;;;;;13.60;6.27;;;0.70;99.90;;;;;;4975623;28;20342;-85
2022/02/27 01:58:29;;;;;;;16.50;6.93;;;0.60;99.90;;;;;;4957769;28;20209;-85
2022/02/27 02:00:57;;;;;;;12.73;6.20;;;0.60;99.90;;;;;;4958108;28;20259;-86
2022/02/27 02:03:24;;;;;;;13.03;6.33;;;0.60;99.90;;;;;;4958301;28;20173;-85
2022/02/27 02:05:50;;;;;;;14.20;6.10;;;0.60;99.90;;;;;;4958047;28;20657;-84
2022/02/27 02:08:16;;;;;;;12.33;5.87;;;0.50;99.90;;;;;;4958211;28;20206;-83
2022/02/27 02:10:42;;;;;;;12.40;6.13;;;0.40;99.90;;;;;;4958123;28;20644;-84
2022/02/27 02:13:08;;;;;;;14.80;6.23;;;0.40;99.90;;;;;;4975356;28;20170;-84
2022/02/27 02:15:34;;;;;;;10.37;5.87;;;0.30;99.90;;;;;;5329863;23;20461;-86
2022/02/27 02:18:00;;;;;;;11.77;5.83;;;0.20;99.90;;;;;;4976885;28;20224;-86
2022/02/27 02:20:26;;;;;;;13.23;5.73;;;0.20;99.90;;;;;;4977993;28;20177;-87
2022/02/27 02:22:51;;;;;;;11.20;5.53;;;0.10;99.90;;;;;;4977885;28;20259;-86
2022/02/27 02:25:17;;;;;;;11.33;5.43;;;0.10;99.90;;;;;;4977373;28;20591;-86
2022/02/27 02:27:43;;;;;;;12.87;6.00;;;0.20;99.90;;;;;;4977681;28;20177;-85
2022/02/27 02:30:10;;;;;;;10.53;5.80;;;0.20;99.90;;;;;;4960533;28;20181;-85
2022/02/27 02:33:05;;;;;;;10.70;5.57;;;0.30;99.90;;;;;;4960441;28;20187;-85
2022/02/27 02:35:45;;;;;;;10.63;5.93;;;0.30;99.90;;;;;;4951023;28;20624;-86
2022/02/27 02:38:11;;;;;;;11.80;5.87;;;0.30;99.90;;;;;;4996839;28;20211;-86
2022/02/27 02:40:36;;;;;;;12.17;5.93;;;0.20;99.90;;;;;;4979435;28;20215;-86
2022/02/27 02:43:02;;;;;;;14.67;6.00;;;0.30;99.90;;;;;;4997066;28;20599;-86
2022/02/27 02:45:28;;;;;;;17.00;6.30;;;0.20;99.90;;;;;;4979628;28;20224;-86
2022/02/27 02:47:55;;;;;;;9.73;5.57;;;0.20;99.90;;;;;;4996564;28;20211;-86
2022/02/27 02:50:22;;;;;;;13.83;6.03;;;0.10;99.90;;;;;;4979385;28;20187;-86
2022/02/27 02:52:48;;;;;;;10.50;5.73;;;0.10;99.90;;;;;;4996796;28;20176;-86
2022/02/27 02:55:18;;;;;;;8.63;5.67;;;0.00;99.90;;;;;;4996363;28;20542;-86
2022/02/27 02:57:44;;;;;;;14.37;5.90;;;-0.10;99.90;;;;;;4996697;28;20180;-86
2022/02/27 03:00:12;;;;;;;11.13;6.37;;;0.00;99.90;;;;;;4996717;28;20638;-86
2022/02/27 03:02:38;;;;;;;14.93;6.73;;;-0.10;99.90;;;;;;4979043;28;20633;-86
2022/02/27 03:05:08;;;;;;;8.67;5.63;;;-0.10;99.90;;;;;;4978775;28;20211;-86
2022/02/27 03:07:40;;;;;;;13.13;6.43;;;-0.10;99.90;;;;;;4979135;28;20574;-86
2022/02/27 03:10:08;;;;;;;12.60;5.93;;;0.00;99.90;;;;;;4996244;28;20187;-86
2022/02/27 03:12:35;;;;;;;10.00;5.80;;;0.00;99.90;;;;;;4978472;28;20179;-86
2022/02/27 03:15:02;;;;;;;11.50;5.97;;;0.10;99.90;;;;;;4996235;28;20168;-86
2022/02/27 03:17:28;;;;;;;13.37;5.47;;;0.10;99.90;;;;;;4978650;28;20670;-86
2022/02/27 03:19:53;;;;;;;10.40;5.23;;;0.10;99.90;;;;;;4996383;28;20199;-86
2022/02/27 03:22:19;;;;;;;12.40;5.90;;;0.10;99.90;;;;;;4996285;28;20176;-86
2022/02/27 03:24:45;;;;;;;15.67;6.20;;;0.10;99.90;;;;;;4995924;28;20648;-87
2022/02/27 03:27:11;;;;;;;12.73;6.03;;;0.10;99.90;;;;;;4996083;28;20250;-87
2022/02/27 03:29:36;;;;;;;13.97;5.97;;;0.00;99.90;;;;;;4978666;28;20203;-86
2022/02/27 03:32:02;;;;;;;15.20;6.13;;;0.10;99.90;;;;;;4978745;28;20180;-86
2022/02/27 03:34:28;;;;;;;14.27;6.27;;;0.00;99.90;;;;;;4996239;28;20176;-86
2022/02/27 03:36:54;;;;;;;14.03;6.00;;;0.00;99.90;;;;;;4978445;28;20234;-86
2022/02/27 03:39:20;;;;;;;11.13;5.83;;;0.10;99.90;;;;;;4995815;28;20172;-86
2022/02/27 03:41:45;;;;;;;10.60;5.60;;;0.10;99.90;;;;;;4996158;28;20168;-86
2022/02/27 03:44:11;;;;;;;11.50;5.87;;;0.10;99.90;;;;;;4978409;28;20211;-86
2022/02/27 03:46:37;;;;;;;12.90;5.50;;;0.10;99.90;;;;;;4995637;28;20608;-85
2022/02/27 03:49:07;;;;;;;10.10;5.40;;;0.00;99.90;;;;;;4995912;28;20172;-86
2022/02/27 03:51:34;;;;;;;10.33;5.43;;;0.00;99.90;;;;;;4978299;28;20189;-87
2022/02/27 03:54:01;;;;;;;13.27;5.73;;;0.00;99.90;;;;;;4995805;28;20187;-87
2022/02/27 03:56:27;;;;;;;13.70;5.90;;;0.10;99.90;;;;;;4995303;28;20180;-87
2022/02/27 03:58:52;;;;;;;10.67;5.60;;;0.00;99.90;;;;;;4978104;28;20193;-86
2022/02/27 04:01:18;;;;;;;13.73;7.17;;;0.10;99.90;;;;;;4978270;28;20645;-87
2022/02/27 04:03:44;;;;;;;9.97;5.93;;;0.10;99.90;;;;;;4995671;28;20180;-86
2022/02/27 04:06:11;;;;;;;10.57;5.70;;;0.10;99.90;;;;;;4977988;28;20219;-87
2022/02/27 04:08:38;;;;;;;15.00;5.63;;;0.00;99.90;;;;;;4978192;28;20203;-86
2022/02/27 04:11:03;;;;;;;11.13;5.40;;;0.00;99.90;;;;;;4995276;28;20230;-86
2022/02/27 04:13:29;;;;;;;14.00;5.57;;;0.10;99.90;;;;;;4995433;28;20675;-86
2022/02/27 04:15:55;;;;;;;9.90;5.47;;;0.00;99.90;;;;;;4977785;28;20232;-87
2022/02/27 04:18:20;;;;;;;10.77;5.73;;;0.00;99.90;;;;;;4995498;28;20167;-86
2022/02/27 04:20:46;;;;;;;10.13;5.60;;;0.00;99.90;;;;;;4995513;28;20227;-86
2022/02/27 04:23:12;;;;;;;11.97;5.60;;;0.00;99.90;;;;;;4978000;28;20181;-87
2022/02/27 04:25:38;;;;;;;8.80;5.60;;;0.00;99.90;;;;;;4977480;28;20203;-87
2022/02/27 04:28:03;;;;;;;15.30;5.50;;;-0.10;99.90;;;;;;4977889;28;20183;-85
2022/02/27 04:30:29;;;;;;;13.70;5.63;;;-0.10;99.90;;;;;;4978127;28;20622;-86
2022/02/27 04:32:55;;;;;;;10.67;5.30;;;-0.10;99.90;;;;;;4978040;28;20635;-86
2022/02/27 04:35:21;;;;;;;13.10;5.40;;;-0.10;99.90;;;;;;4995197;28;20181;-86
2022/02/27 04:37:47;;;;;;;12.37;5.30;;;-0.20;99.90;;;;;;4995251;28;20180;-86
2022/02/27 04:40:13;;;;;;;13.20;5.10;;;-0.10;99.90;;;;;;4995072;28;20610;-86
2022/02/27 04:42:39;;;;;;;12.73;5.60;;;-0.10;99.90;;;;;;4983972;28;20586;-86
2022/02/27 04:45:07;;;;;;;13.07;5.67;;;-0.10;99.90;;;;;;4958287;28;20208;-86
2022/02/27 04:47:33;;;;;;;11.80;5.60;;;-0.10;99.90;;;;;;4958438;28;20690;-86
2022/02/27 04:49:58;;;;;;;13.57;5.60;;;-0.10;99.90;;;;;;4975779;28;20207;-85
2022/02/27 04:52:24;;;;;;;12.60;5.77;;;-0.10;99.90;;;;;;4975774;28;20235;-86
2022/02/27 04:54:50;;;;;;;13.60;5.67;;;-0.10;99.90;;;;;;4958052;28;20227;-85
2022/02/27 04:57:15;;;;;;;10.37;5.47;;;-0.20;99.90;;;;;;4958352;28;20181;-86
2022/02/27 04:59:41;;;;;;;13.47;5.70;;;-0.20;99.90;;;;;;4975574;28;20495;-86
2022/02/27 05:02:07;;;;;;;13.00;5.77;;;-0.20;99.90;;;;;;4975710;28;20208;-86
2022/02/27 05:04:34;;;;;;;10.10;5.83;;;-0.30;99.90;;;;;;4958285;28;20204;-87
2022/02/27 05:07:01;;;;;;;9.43;5.97;;;-0.30;99.90;;;;;;4976949;28;20222;-87
2022/02/27 05:09:26;;;;;;;18.13;6.03;;;-0.40;99.90;;;;;;4994549;28;20179;-86
2022/02/27 05:11:52;;;;;;;12.30;5.60;;;-0.40;99.90;;;;;;4994995;28;20172;-86
2022/02/27 05:14:18;;;;;;;12.33;5.63;;;-0.40;99.90;;;;;;4977595;28;20180;-86
2022/02/27 05:16:44;;;;;;;10.33;5.70;;;-0.40;99.90;;;;;;4977169;28;20242;-86
2022/02/27 05:19:10;;;;;;;10.40;5.47;;;-0.40;99.90;;;;;;4995152;28;20179;-86
2022/02/27 05:21:36;;;;;;;10.50;5.17;;;-0.40;99.90;;;;;;4977489;28;20185;-85
2022/02/27 05:24:02;;;;;;;12.80;5.20;;;-0.40;99.90;;;;;;4994896;28;20176;-86
2022/02/27 05:26:28;;;;;;;12.10;5.77;;;-0.40;99.90;;;;;;4977053;28;20223;-87
2022/02/27 05:28:54;;;;;;;14.70;5.80;;;-0.40;99.90;;;;;;4994656;28;20526;-86
2022/02/27 05:31:20;;;;;;;9.63;5.77;;;-0.40;99.90;;;;;;4994881;28;20513;-87
2022/02/27 05:33:45;;;;;;;12.50;6.00;;;-0.40;99.90;;;;;;4977372;28;20271;-87
2022/02/27 05:36:11;;;;;;;14.17;5.97;;;-0.50;99.90;;;;;;4978526;28;20187;-85
2022/02/27 05:38:37;;;;;;;10.00;5.63;;;-0.50;99.90;;;;;;4998330;28;20255;-85
2022/02/27 05:41:04;;;;;;;13.30;5.83;;;-0.50;99.90;;;;;;4998090;28;20179;-85
2022/02/27 05:43:30;;;;;;;13.63;6.13;;;-0.50;99.90;;;;;;4980282;28;20297;-86
2022/02/27 05:45:55;;;;;;;13.17;6.10;;;-0.50;99.90;;;;;;4980814;28;20294;-87
2022/02/27 05:48:21;;;;;;;15.63;5.87;;;-0.50;99.90;;;;;;4998023;28;20601;-87
2022/02/27 05:50:47;;;;;;;11.93;5.47;;;-0.50;99.90;;;;;;4980834;28;20491;-86
2022/02/27 05:53:13;;;;;;;12.60;5.77;;;-0.60;99.90;;;;;;4997930;28;20178;-86
2022/02/27 05:55:38;;;;;;;13.70;6.40;;;-0.60;99.90;;;;;;4997684;28;20198;-86
2022/02/27 05:58:04;;;;;;;17.43;5.87;;;-0.60;99.90;;;;;;4998045;28;20176;-86
2022/02/27 06:00:30;;;;;;;11.73;6.53;;;-0.60;99.90;;;;;;4998070;28;20164;-86
2022/02/27 06:02:56;;;;;;;12.27;5.63;;;-0.50;99.90;;;;;;4997940;28;20199;-87
2022/02/27 06:05:21;;;;;;;10.13;5.70;;;-0.50;99.90;;;;;;4998461;28;20211;-87
2022/02/27 06:07:47;;;;;;;13.30;5.90;;;-0.60;99.90;;;;;;4979924;28;20191;-86
2022/02/27 06:10:14;;;;;;;10.40;5.70;;;-0.60;99.90;;;;;;4997306;28;20224;-86
2022/02/27 06:12:50;;;;;;;9.60;5.40;;;-0.50;99.90;;;;;;4980640;28;20611;-86
2022/02/27 06:15:16;;;;;;;12.33;6.00;;;-0.50;99.90;;;;;;4997901;28;20612;-87
2022/02/27 06:17:42;;;;;;;14.83;6.77;;;-0.60;99.90;;;;;;4997322;28;20625;-87
2022/02/27 06:20:08;;;;;;;14.07;6.17;;;-0.60;99.90;;;;;;4980213;28;20563;-87
2022/02/27 06:22:45;;;;;;;11.63;6.07;;;-0.60;99.90;;;;;;4980211;28;20179;-86
2022/02/27 06:25:12;;;;;;;11.70;5.67;;;-0.60;99.90;;;;;;4997085;28;20199;-87
2022/02/27 06:27:42;;;;;;;13.80;6.00;;;-0.60;99.90;;;;;;4997368;28;20615;-86
2022/02/27 06:30:16;;;;;;;9.77;5.47;;;-0.60;99.90;;;;;;4997460;28;20172;-87
2022/02/27 06:32:43;;;;;;;14.23;6.33;;;-0.60;99.90;;;;;;4980031;28;20190;-87
2022/02/27 06:35:12;;;;;;;14.10;6.00;;;-0.60;99.90;;;;;;4996381;28;20194;-86
2022/02/27 06:37:38;;;;;;;12.87;6.23;;;-0.60;99.90;;;;;;4997055;28;20180;-88
2022/02/27 06:40:06;;;;;;;11.20;6.43;;;-0.60;99.90;;;;;;4997009;28;20176;-88
2022/02/27 06:42:32;;;;;;;9.73;5.93;;;-0.60;99.90;;;;;;4997282;28;20246;-88
2022/02/27 06:44:57;;;;;;;12.87;6.47;;;-0.50;99.90;;;;;;4997177;28;20582;-89
2022/02/27 06:47:23;;;;;;;10.60;6.53;;;-0.60;99.90;;;;;;4978632;28;20203;-90
2022/02/27 06:49:50;;;;;;;12.03;6.30;;;-0.60;99.90;;;;;;4979611;28;20183;-88
2022/02/27 06:52:16;;;;;;;11.60;6.43;;;-0.50;99.90;;;;;;4979964;28;20172;-89
2022/02/27 06:54:42;;;;;;;12.40;5.83;;;-0.50;99.90;;;;;;4996781;28;20175;-90
2022/02/27 06:57:08;;;;;;;12.90;6.23;;;-0.50;99.90;;;;;;4996972;28;20187;-89
2022/02/27 06:59:33;;;;;;;8.97;5.93;;;-0.40;99.90;;;;;;4996963;28;20266;-89
2022/02/27 07:01:59;;;;;;;9.97;5.60;;;-0.40;99.90;;;;;;4996802;28;20168;-89
2022/02/27 07:04:25;;;;;;;13.10;6.17;;;-0.40;99.90;;;;;;4996806;28;20183;-89
2022/02/27 07:06:50;;;;;;;12.23;6.73;;;-0.30;99.90;;;;;;4979290;28;20224;-90
2022/02/27 07:09:16;;;;;;;10.63;5.80;;;-0.30;99.90;;;;;;4996818;28;20173;-89
2022/02/27 07:11:44;;;;;;;14.43;6.67;;;-0.30;99.90;;;;;;4996548;28;20599;-89
2022/02/27 07:14:11;;;;;;;11.17;6.27;;;-0.30;99.90;;;;;;4979281;28;20644;-89
2022/02/27 07:16:37;;;;;;;15.00;6.50;;;-0.30;99.90;;;;;;4996337;28;20314;-88
2022/02/27 07:19:04;;;;;;;15.13;7.23;;;-0.20;99.90;;;;;;4979337;28;20215;-88
2022/02/27 07:21:33;;;;;;;10.67;6.33;;;-0.20;99.90;;;;;;4996440;28;20544;-88
2022/02/27 07:23:59;;;;;;;11.93;6.80;;;-0.10;99.90;;;;;;4979194;28;20270;-88
2022/02/27 07:26:25;;;;;;;12.90;6.33;;;-0.10;99.90;;;;;;4995873;28;20650;-88
2022/02/27 07:28:52;;;;;;;10.37;6.07;;;0.00;99.90;;;;;;4978597;28;20172;-87
2022/02/27 07:31:18;;;;;;;10.37;6.17;;;0.10;99.90;;;;;;4978841;28;20510;-87
2022/02/27 07:33:44;;;;;;;12.73;6.80;;;0.10;99.90;;;;;;4996190;28;20172;-86
2022/02/27 07:36:10;;;;;;;12.43;6.70;;;0.10;99.90;;;;;;4995811;28;20472;-87
2022/02/27 07:38:36;;;;;;;13.90;6.30;;;0.10;99.90;;;;;;4995957;28;20168;-86
2022/02/27 07:41:02;;;;;;;12.80;6.30;;;0.20;99.90;;;;;;4995595;28;20195;-86
2022/02/27 07:43:28;;;;;;;10.70;6.83;;;0.20;99.90;;;;;;4995885;28;20166;-86
2022/02/27 07:45:54;;;;;;;11.80;5.87;;;0.20;99.90;;;;;;4995530;28;20199;-86
2022/02/27 07:48:19;;;;;;;12.73;6.70;;;0.20;99.90;;;;;;4995534;28;20188;-85
2022/02/27 07:50:45;;;;;;;12.53;6.67;;;0.30;99.90;;;;;;4995602;28;20177;-85
2022/02/27 07:53:11;;;;;;;11.70;6.57;;;0.40;99.90;;;;;;4995855;28;20171;-85
2022/02/27 07:55:37;;;;;;;11.30;6.70;;;0.40;99.90;;;;;;4995378;28;20172;-85
2022/02/27 07:58:03;;;;;;;19.70;7.50;;;0.50;99.90;;;;;;4978213;28;20183;-85
2022/02/27 08:00:28;;;;;;;12.77;7.43;;;0.50;99.90;;;;;;4995234;28;20192;-85
2022/02/27 08:02:54;;;;;;;16.93;7.53;;;0.50;99.90;;;;;;4995565;28;20170;-86
2022/02/27 08:05:20;;;;;;;11.20;6.97;;;0.70;99.90;;;;;;4995284;28;20261;-86
2022/02/27 08:07:47;;;;;;;14.20;6.80;;;0.70;99.90;;;;;;4978070;28;20478;-86
2022/02/27 08:10:12;;;;;;;11.47;6.33;;;0.80;99.90;;;;;;4995259;28;20184;-87
2022/02/27 08:12:48;;;;;;;17.83;7.57;;;0.80;99.90;;;;;;4978247;28;20192;-87
2022/02/27 08:15:15;;;;;;;13.13;6.70;;;0.90;99.90;;;;;;4978064;28;20180;-87
2022/02/27 08:17:42;;;;;;;13.30;7.63;;;0.90;99.90;;;;;;4995200;28;20232;-87
2022/02/27 08:20:08;;;;;;;14.20;7.23;;;1.00;99.90;;;;;;4995454;28;20167;-88
2022/02/27 08:22:36;;;;;;;10.83;6.80;;;1.10;99.90;;;;;;4976261;28;20202;-88
2022/02/27 08:25:07;;;;;;;12.00;7.47;;;1.20;99.90;;;;;;4978681;28;20214;-89
2022/02/27 08:27:33;;;;;;;14.27;7.47;;;1.30;99.90;;;;;;4978041;28;20619;-88
2022/02/27 08:29:59;;;;;;;14.07;7.53;;;1.40;99.90;;;;;;4986877;28;20180;-88
2022/02/27 08:32:25;;;;;;;13.30;7.93;;;1.50;99.90;;;;;;4958822;28;20227;-89
2022/02/27 08:34:53;;;;;;;13.73;7.57;;;1.60;99.90;;;;;;4959960;28;20176;-88
2022/02/27 08:37:18;;;;;;;19.37;7.37;;;1.70;99.90;;;;;;4995463;28;20202;-89
2022/02/27 08:39:44;;;;;;;15.40;8.03;;;1.90;99.90;;;;;;4978245;28;20180;-90
2022/02/27 08:42:10;;;;;;;17.73;7.67;;;2.00;99.90;;;;;;4978073;28;20175;-90
2022/02/27 08:44:36;;;;;;;18.40;7.80;;;2.10;99.90;;;;;;4977860;28;20271;-89
2022/02/27 08:47:03;;;;;;;12.30;7.17;;;2.30;99.90;;;;;;4977811;28;20246;-90
2022/02/27 08:49:29;;;;;;;14.27;7.60;;;2.40;99.90;;;;;;4995535;28;20506;-90
2022/02/27 08:51:55;;;;;;;16.20;7.97;;;2.40;99.90;;;;;;4995483;28;20168;-90
2022/02/27 08:54:21;;;;;;;15.93;7.80;;;2.50;99.90;;;;;;4995357;28;20183;-88
2022/02/27 08:56:46;;;;;;;20.37;8.20;;;2.60;99.90;;;;;;4977678;28;20635;-89
2022/02/27 08:59:12;;;;;;;16.13;7.27;;;2.70;99.90;;;;;;4995307;28;20491;-90
2022/02/27 09:01:39;;;;;;;14.50;7.37;;;2.70;99.90;;;;;;4977996;28;20184;-90
2022/02/27 09:04:05;;;;;;;12.97;7.07;;;2.80;99.90;;;;;;4995278;28;20621;-89
2022/02/27 09:06:30;;;;;;;10.93;7.20;;;2.90;99.90;;;;;;4994946;28;20220;-90
2022/02/27 09:08:56;;;;;;;20.70;8.50;;;3.00;99.90;;;;;;4995298;28;20476;-89
2022/02/27 09:11:22;;;;;;;18.73;8.10;;;3.10;99.90;;;;;;4996252;28;20490;-89
2022/02/27 09:13:48;;;;;;;16.27;7.43;;;3.20;99.90;;;;;;4999101;28;20172;-90
2022/02/27 09:16:14;;;;;;;15.73;7.77;;;3.30;99.90;;;;;;4998801;28;20532;-90
2022/02/27 09:18:40;;;;;;;17.07;7.70;;;3.40;99.90;;;;;;4981522;28;20176;-90
2022/02/27 09:21:07;;;;;;;17.20;7.27;;;3.60;99.90;;;;;;4998832;28;20278;-89
2022/02/27 09:23:34;;;;;;;16.20;8.13;;;3.70;99.90;;;;;;4981475;28;20183;-89
2022/02/27 09:26:01;;;;;;;16.23;8.17;;;3.80;99.90;;;;;;4981218;28;20228;-90
2022/02/27 09:28:28;;;;;;;15.20;8.00;;;3.90;99.90;;;;;;4981195;28;20183;-90
2022/02/27 09:30:54;;;;;;;14.27;8.30;;;4.00;99.90;;;;;;4981235;28;20180;-91
2022/02/27 09:33:20;;;;;;;16.00;8.03;;;4.10;99.90;;;;;;4981414;28;20180;-90
2022/02/27 09:35:46;;;;;;;18.40;7.97;;;4.20;99.90;;;;;;4981123;28;20383;-91
2022/02/27 09:38:28;;;;;;;19.67;8.60;;;4.20;99.90;;;;;;4998391;28;20180;-89
2022/02/27 09:40:57;;;;;;;18.27;8.10;;;4.30;99.90;;;;;;4995965;28;20194;-91
2022/02/27 09:43:23;;;;;;;15.43;7.97;;;4.40;99.90;;;;;;4998367;28;20586;-91
2022/02/27 09:45:50;;;;;;;16.80;7.70;;;4.50;99.90;;;;;;4981143;28;20243;-92
2022/02/27 09:48:16;;;;;;;18.40;8.00;;;4.60;99.90;;;;;;4981479;28;20192;-92
2022/02/27 09:50:42;;;;;;;22.33;8.90;;;4.60;99.90;;;;;;4981152;28;20202;-93
2022/02/27 09:53:10;;;;;;;23.00;8.03;;;4.70;99.90;;;;;;4998504;28;20591;-93
2022/02/27 09:55:37;;;;;;;15.23;8.33;;;4.80;99.90;;;;;;4998395;28;20175;-92
2022/02/27 09:58:03;;;;;;;19.53;8.13;;;4.90;99.90;;;;;;4998021;28;20699;-92
2022/02/27 10:00:29;;;;;;;21.23;8.50;;;5.00;99.90;;;;;;4998298;28;20172;-92
2022/02/27 10:03:04;;;;;;;18.73;8.40;;;5.10;99.90;;;;;;4980895;28;20611;-93
2022/02/27 10:05:30;;;;;;;21.43;8.93;;;5.20;99.90;;;;;;4997745;28;20207;-92
2022/02/27 10:08:00;;;;;;;17.47;9.07;;;5.30;99.90;;;;;;4997934;28;20180;-91
2022/02/27 10:10:27;;;;;;;21.67;9.00;;;5.40;99.90;;;;;;4997775;28;20227;-92
2022/02/27 10:12:53;;;;;;;23.57;8.17;;;5.50;99.90;;;;;;4997725;28;20244;-90
2022/02/27 10:15:20;;;;;;;16.97;8.03;;;5.50;99.90;;;;;;4997811;28;20222;-90
2022/02/27 10:17:46;;;;;;;21.23;9.13;;;5.60;99.90;;;;;;4997539;28;20311;-90
2022/02/27 10:20:14;;;;;;;20.10;8.50;;;5.70;99.90;;;;;;4997771;28;20176;-91
2022/02/27 10:22:42;;;;;;;22.77;9.00;;;5.80;99.90;;;;;;4980264;28;20242;-90
2022/02/27 10:25:22;;;;;;;20.80;8.90;;;5.90;99.90;;;;;;4997414;28;20194;-90
2022/02/27 10:27:51;;;;;;;21.90;8.77;;;5.90;99.90;;;;;;4980072;28;20187;-89
2022/02/27 10:30:29;;;;;;;20.57;8.53;;;6.00;99.90;;;;;;4997567;28;20179;-90
2022/02/27 10:33:07;;;;;;;21.53;8.27;;;6.10;99.90;;;;;;4980220;28;20184;-90
2022/02/27 10:35:50;;;;;;;21.30;8.93;;;6.10;99.90;;;;;;4964146;28;20200;-90
2022/02/27 10:38:52;;;;;;;18.30;8.03;;;6.20;99.90;;;;;;4980042;28;20188;-89
2022/02/27 10:41:21;;;;;;;17.60;7.60;;;6.30;99.90;;;;;;4980001;28;20191;-90
2022/02/27 10:43:48;;;;;;;20.53;7.77;;;6.30;99.90;;;;;;4980198;28;20176;-89
2022/02/27 10:46:16;;;;;;;21.73;7.43;;;6.40;99.90;;;;;;4979912;28;20211;-90
2022/02/27 10:48:42;;;;;;;18.60;6.77;;;6.50;99.90;;;;;;4979984;28;20638;-89
2022/02/27 10:51:13;;;;;;;18.50;7.00;;;6.50;99.90;;;;;;4997213;28;20180;-90
2022/02/27 10:53:45;;;;;;;16.00;6.80;;;6.60;99.90;;;;;;4997078;28;20225;-88
2022/02/27 10:56:12;;;;;;;15.63;6.77;;;6.60;99.90;;;;;;4979842;28;20180;-90
2022/02/27 10:58:47;;;;;;;19.23;6.47;;;6.70;99.90;;;;;;4996741;28;20180;-89
2022/02/27 11:01:23;;;;;;;12.60;5.97;;;6.70;99.90;;;;;;4996973;28;20255;-89
2022/02/27 11:03:51;;;;;;;18.50;6.90;;;6.70;99.90;;;;;;4996808;28;20176;-88
2022/02/27 11:06:18;;;;;;;14.00;5.70;;;6.80;99.90;;;;;;4996734;28;20212;-89
2022/02/27 11:08:43;;;;;;;14.63;5.77;;;6.90;99.90;;;;;;4979370;28;20176;-89
2022/02/27 11:11:10;;;;;;;12.07;5.33;;;6.90;99.90;;;;;;4979360;28;20187;-89
2022/02/27 11:13:36;;;;;;;14.07;4.97;;;7.00;99.90;;;;;;4996425;28;20610;-88
2022/02/27 11:16:02;;;;;;;15.27;5.07;;;7.10;99.90;;;;;;4979084;28;20231;-89
2022/02/27 11:18:29;;;;;;;10.83;5.30;;;7.10;99.90;;;;;;4979129;28;20206;-89
2022/02/27 11:20:56;;;;;;;12.50;4.67;;;7.20;99.90;;;;;;4996516;28;20239;-91
2022/02/27 11:23:22;;;;;;;11.67;4.20;;;7.20;99.90;;;;;;4979233;28;20178;-90
2022/02/27 11:25:48;;;;;;;8.83;3.83;;;7.20;99.90;;;;;;4996599;28;20208;-88
2022/02/27 11:28:18;;;;;;;10.20;4.03;;;7.20;99.90;;;;;;4996227;28;20176;-88
2022/02/27 11:30:47;;;;;;;10.70;4.30;;;7.20;99.90;;;;;;4979197;28;20180;-89
2022/02/27 11:33:17;;;;;;;9.10;3.10;;;7.30;99.90;;;;;;4996026;28;20168;-88
2022/02/27 11:35:45;;;;;;;8.20;3.37;;;7.30;99.90;;;;;;4996145;28;20176;-89
2022/02/27 11:38:43;;;;;;;9.60;3.60;;;7.30;99.90;;;;;;4978951;28;20195;-89
2022/02/27 11:41:13;;;;;;;8.30;3.73;;;7.30;99.90;;;;;;4996186;28;20194;-89
2022/02/27 11:43:57;;;;;;;8.97;3.60;;;7.40;99.90;;;;;;4995754;28;20164;-89
2022/02/27 11:46:35;;;;;;;10.00;3.27;;;7.40;99.90;;;;;;4968179;28;20547;-88
2022/02/27 11:49:06;;;;;;;8.27;3.30;;;7.40;99.90;;;;;;4976547;28;20195;-88
2022/02/27 11:51:38;;;;;;;8.33;3.00;;;7.50;99.90;;;;;;4959302;28;20176;-89
2022/02/27 11:54:06;;;;;;;8.53;3.17;;;7.50;99.90;;;;;;4959282;28;20512;-88
2022/02/27 11:56:32;;;;;;;10.80;3.70;;;7.50;99.90;;;;;;4976363;28;20168;-91
2022/02/27 11:58:57;;;;;;;12.17;3.97;;;7.50;99.90;;;;;;4976161;28;20207;-89
2022/02/27 12:01:37;;;;;;;7.87;3.17;;;7.60;99.90;;;;;;4976495;28;20615;-89
2022/02/27 12:04:33;;;;;;;7.03;2.67;;;7.70;99.90;;;;;;4959061;28;20679;-89
2022/02/27 12:07:07;;;;;;;7.30;3.10;;;7.70;99.90;;;;;;4955637;28;20247;-89
2022/02/27 12:09:51;;;;;;;5.60;2.60;;;7.80;99.90;;;;;;4959167;28;20215;-88
2022/02/27 12:12:38;;;;;;;6.50;2.83;;;7.70;98.90;;;;;;4990281;28;20241;-90
2022/02/27 12:15:26;;;;;;;7.23;2.90;;;7.70;98.10;;;;;;4978213;28;20179;-89
2022/02/27 12:18:15;;;;;;;7.27;2.33;;;7.70;99.10;;;;;;4978123;28;20270;-89
2022/02/27 12:20:41;;;;;;;6.53;2.43;;;7.80;99.20;;;;;;4978221;28;20243;-88
2022/02/27 12:23:10;;;;;;;5.00;2.10;;;7.90;99.20;;;;;;4978095;28;20634;-87
2022/02/27 12:25:43;;;;;;;6.47;2.50;;;8.00;97.90;;;;;;4977905;28;20199;-88
2022/02/27 12:28:09;;;;;;;4.77;2.17;;;7.90;99.10;;;;;;4995361;28;20176;-89
2022/02/27 12:30:35;;;;;;;5.10;2.20;;;7.90;97.40;;;;;;4978148;28;20559;-89
2022/02/27 12:33:09;;;;;;;7.87;2.80;;;8.00;98.30;;;;;;4995602;28;20176;-89
2022/02/27 12:35:39;;;;;;;4.97;2.43;;;8.00;99.60;;;;;;4977817;28;20172;-88
2022/02/27 12:38:07;;;;;;;5.73;2.50;;;8.00;99.00;;;;;;4995224;28;20176;-88
2022/02/27 12:40:34;;;;;;;5.10;2.40;;;8.10;97.80;;;;;;4977809;28;20180;-89
2022/02/27 12:43:05;;;;;;;3.13;1.60;;;8.10;98.20;;;;;;4977895;28;20652;-88
2022/02/27 12:45:33;;;;;;;4.10;1.37;;;8.10;96.00;;;;;;4997102;28;20210;-89
2022/02/27 12:48:10;;;;;;;2.50;1.20;;;8.00;95.40;;;;;;4999269;28;20270;-89